Terminal Aerodrome Forecast
Issued by NWS Portland, OR

Home | Current Version | Previous Version | Text Only | Print | Product List | Glossary On
Versions: 1 2 3 4 5 6 7 8 9 10 11 12 13 14 15 16
000
FTUS46 KPQR 260520
TAFTTD
TAF
KTTD 260520Z 2606/2706 VRB05KT P6SM FEW040 SCT080 BKN200
     FM261200 10008KT P6SM VCSH BKN040 OVC080
     FM261600 10013KT P6SM -RA SCT025 OVC040
     FM262300 17008KT 6SM -SHRA BR BKN025 OVC040
     FM270100 22004KT P6SM -SHRA SCT025 BKN040=

USA.gov is the U.S. government's official web portal to all federal, state and local government web resources and services.